SVMC/MAR METAR and TAF weather

Enter ICAO airport designator
Station Type Date Time Source
SVMC METAR 2021/07/04 21:03 UTC NOAA

SVMC 042103Z AUTO 00000KT NCD 34/// Q////


Station Type Date Time Source
SVMC Decoded METAR 2021/07/04 21:03 UTC NOAA

Maracaibo-La Chinita, Venezuela (SVMC) 10-34N 071-44W 65M
Jul 04, 2021 - 05:03 PM EDT / 2021.07.04 2103 UTC
Wind: Calm:0
Temperature: 93 F (34 C)
ob: SVMC 042103Z AUTO 00000KT NCD 34/// Q////
cycle: 21

Station Type Date Time Source
SVMC TAF 2021/07/28 18:03 UTC NOAA

TAF SVMC 281600Z 2818/2918 18006KT 9999 SCT016 TX32/2818Z TN24/2807Z
TEMPO 2818/2822 14006KT 9000 -DZ BKN010

Example: see airport list